Data for 07/09/2006

Time Sea-Level Adjusted Pressure Absolute Pressure Temperature Relative Humidity Dew Point   
(mb) (inHg) (mb) (inHg) (C) (F) (%) (C) (F)
00:05 1024 30.24 853 25.19 20.4 68.8 29 1.9 35.5
00:10 1024 30.24 853 25.19 20.4 68.7 29 2.2 35.9
00:15 1024 30.24 853 25.19 20.4 68.7 30 2.2 36
00:20 1024 30.24 853 25.19 20.4 68.7 30 2.4 36.4
00:25 1024 30.24 853 25.19 20.4 68.8 30 2.4 36.3
00:30 1024 30.24 853 25.19 20.6 69.1 30 2.6 36.7
00:35 1024 30.24 853 25.19 20.6 69 30 2.6 36.7
00:40 1024 30.24 853 25.19 20.6 69 31 2.8 37
00:45 1023 30.21 853 25.19 20.6 69.1 30 2.8 37.1
00:50 1023 30.21 853 25.19 20.7 69.2 30 2.8 37
00:55 1023 30.21 853 25.19 20.8 69.4 30 2.8 37
01:00 1023 30.21 852 25.16 20.8 69.4 30 2.9 37.1
01:05 1023 30.21 852 25.16 20.8 69.4 30 2.9 37.2
01:10 1023 30.21 852 25.16 20.8 69.4 30 2.9 37.3
01:15 1023 30.21 852 25.16 20.7 69.3 31 3 37.3
01:20 1023 30.21 852 25.16 20.6 69.1 31 3.1 37.5
01:25 1023 30.21 852 25.16 20.6 69 31 3 37.5
01:30 1023 30.21 852 25.16 20.5 68.9 31 2.9 37.2
01:35 1023 30.21 852 25.16 20.6 69 31 3 37.4
01:40 1023 30.21 852 25.16 20.5 68.8 31 3.1 37.6
01:45 1023 30.21 852 25.16 20.3 68.6 31 2.9 37.2
01:50 1023 30.21 852 25.16 20.5 69 30 2.8 37
01:55 1023 30.21 852 25.16 20.6 69 31 3 37.4
02:00 1023 30.21 852 25.16 20.5 68.8 31 3 37.3
02:05 1023 30.21 852 25.16 20.3 68.5 31 2.9 37.2
02:10 1023 30.21 852 25.16 20.2 68.3 31 2.8 37.1
02:15 1023 30.21 852 25.16 20.2 68.4 32 3 37.4
02:20 1023 30.21 852 25.16 20.2 68.3 31 2.9 37.2
02:25 1023 30.21 852 25.16 20.1 68.2 31 2.8 37.1
02:30 1023 30.21 852 25.16 20.2 68.3 31 2.7 36.9
02:35 1023 30.21 852 25.16 20.2 68.3 32 3.1 37.5
02:40 1023 30.21 852 25.16 20 68.1 32 2.9 37.1
02:45 1023 30.21 852 25.16 19.9 67.8 32 3 37.4
02:50 1023 30.21 852 25.16 19.8 67.6 32 2.8 37.1
02:55 1023 30.21 852 25.16 19.7 67.5 32 2.9 37.2
03:00 1023 30.21 852 25.16 19.6 67.3 32 2.8 37.1
03:05 1023 30.21 852 25.16 19.7 67.4 32 2.8 37
03:10 1023 30.21 852 25.16 19.6 67.3 32 2.8 37.1
03:15 1023 30.21 852 25.16 19.6 67.2 33 2.9 37.2
03:20 1022 30.18 852 25.16 19.5 67.1 33 2.9 37.1
03:25 1022 30.18 852 25.16 19.4 66.9 33 2.7 36.9
03:30 1022 30.18 852 25.16 19.6 67.2 32 2.7 36.8
03:35 1022 30.18 851 25.13 19.7 67.4 32 2.8 37
03:40 1022 30.18 851 25.13 19.8 67.6 31 2.5 36.5
03:45 1022 30.18 851 25.13 19.8 67.6 32 2.6 36.7
03:50 1022 30.18 851 25.13 19.8 67.6 31 2.5 36.6
03:55 1022 30.18 851 25.13 19.7 67.4 32 2.6 36.7
04:00 1022 30.18 851 25.13 19.6 67.4 32 2.5 36.6
04:05 1022 30.18 851 25.13 19.5 67.1 33 2.8 37
04:10 1022 30.18 851 25.13 19.3 66.8 32 2.4 36.3
04:15 1022 30.18 851 25.13 19.4 66.9 32 2.6 36.6
04:20 1022 30.18 851 25.13 19.3 66.8 33 2.6 36.7
04:25 1022 30.18 851 25.13 19.2 66.6 33 2.6 36.7
04:30 1022 30.18 851 25.13 19 66.2 33 2.6 36.7
04:35 1022 30.18 851 25.13 18.8 65.8 34 2.7 36.8
04:40 1022 30.18 851 25.13 18.6 65.5 35 2.8 37.1
04:45 1022 30.18 851 25.13 18.2 64.7 37 3.5 38.3
04:50 1022 30.18 851 25.13 17.5 63.4 39 3.5 38.3
04:55 1022 30.18 851 25.13 17.1 62.8 40 3.5 38.3
05:00 1022 30.18 852 25.16 16.8 62.3 40 3.4 38.1
05:05 1022 30.18 852 25.16 16.8 62.3 40 3.4 38.2
05:10 1022 30.18 851 25.13 16.7 62 41 3.5 38.3
05:15 1022 30.18 851 25.13 16.6 61.9 41 3.4 38.2
05:20 1022 30.18 851 25.13 16.4 61.6 41 3.4 38
05:25 1022 30.18 851 25.13 16.5 61.6 41 3.1 37.7
05:30 1022 30.18 852 25.16 16.7 62 39 2.9 37.2
05:35 1022 30.18 851 25.13 17.2 63 37 2.5 36.5
05:40 1022 30.18 851 25.13 17.5 63.5 36 2.5 36.6
05:45 1022 30.18 851 25.13 17.8 64 35 2.2 36
05:50 1022 30.18 851 25.13 18 64.4 35 2.3 36.2
05:55 1022 30.18 851 25.13 18.1 64.5 34 2.3 36.1
06:00 1022 30.18 851 25.13 18.2 64.7 34 2.2 35.9
06:05 1022 30.18 851 25.13 18.1 64.6 34 2.3 36.2
06:10 1022 30.18 851 25.13 18.2 64.7 34 2.2 35.9
06:15 1022 30.18 851 25.13 18.4 65.1 33 2.1 35.8
06:20 1022 30.18 851 25.13 18.6 65.5 33 2.2 35.9
06:25 1022 30.18 851 25.13 18.8 65.8 33 2.3 36.2
06:30 1022 30.18 851 25.13 18.8 65.9 33 2.4 36.3
06:35 1022 30.18 851 25.13 18.8 65.9 33 2.4 36.3
06:40 1022 30.18 851 25.13 18.9 65.9 33 2.5 36.6
06:45 1022 30.18 851 25.13 18.8 65.9 33 2.5 36.5
06:50 1022 30.18 851 25.13 18.8 65.9 34 2.8 37
06:55 1022 30.18 851 25.13 18.8 65.8 34 2.9 37.2
07:00 1022 30.18 852 25.16 18.8 65.8 35 3 37.4
07:05 1022 30.18 852 25.16 18.8 65.9 35 3.4 38.1
07:10 1022 30.18 852 25.16 18.8 65.9 37 3.9 39.1
07:15 1022 30.18 852 25.16 18.7 65.7 37 3.8 38.8
07:20 1022 30.18 852 25.16 18.8 65.8 37 3.9 39
07:25 1022 30.18 851 25.13 18.8 65.9 37 4 39.2
07:30 1022 30.18 851 25.13 19 66.1 36 3.9 38.9
07:35 1022 30.18 851 25.13 19.1 66.4 35 3.5 38.2
07:40 1022 30.18 851 25.13 19.3 66.8 35 3.7 38.6
07:45 1022 30.18 851 25.13 19.6 67.3 36 4.2 39.6
07:50 1022 30.18 851 25.13 19.8 67.6 37 5 40.9
07:55 1022 30.18 851 25.13 19.7 67.5 39 5.4 41.7
08:00 1022 30.18 851 25.13 19.8 67.7 37 5 40.9
08:05 1022 30.18 851 25.13 20 68 35 4.3 39.8
08:10 1022 30.18 851 25.13 20.4 68.7 35 4.7 40.4
08:15 1022 30.18 851 25.13 20.6 69.1 36 5.1 41.1
08:20 1022 30.18 851 25.13 21 69.7 33 4.4 39.9
08:25 1022 30.18 851 25.13 21.1 69.9 33 4.4 39.8
08:30 1022 30.18 851 25.13 21.4 70.5 32 4.3 39.7
08:35 1022 30.18 851 25.13 21.5 70.6 30 3.6 38.4
08:40 1022 30.18 851 25.13 21.7 71.1 31 4 39.2
08:45 1022 30.18 851 25.13 22 71.6 30 4 39.1
08:50 1022 30.18 851 25.13 22.3 72.1 31 4.7 40.5
08:55 1022 30.18 851 25.13 22.1 71.8 31 4.5 40.1
09:00 1022 30.18 851 25.13 21.8 71.3 35 6 42.7
09:05 1022 30.18 851 25.13 22 71.6 34 5.5 41.9
09:10 1022 30.18 851 25.13 21.9 71.3 35 5.8 42.4
09:15 1022 30.18 851 25.13 22 71.6 34 5.8 42.4
09:20 1022 30.18 851 25.13 21.7 71 35 5.9 42.6
09:25 1022 30.18 851 25.13 22.3 72.1 33 5.4 41.7
09:30 1022 30.18 851 25.13 22.3 72.1 34 5.7 42.2
09:35 1022 30.18 851 25.13 22.2 72 33 5.4 41.7
09:40 1022 30.18 851 25.13 22 71.5 34 5.4 41.8
09:45 1022 30.18 851 25.13 22.5 72.5 32 5.3 41.5
09:50 1022 30.18 851 25.13 22.7 72.8 34 6.1 43
09:55 1022 30.18 851 25.13 22.9 73.3 32 5.7 42.2
10:00 1022 30.18 851 25.13 23.1 73.5 32 5.5 42
10:05 1022 30.18 851 25.13 23.4 74.2 30 4.9 40.8
10:10 1022 30.18 851 25.13 24.1 75.3 29 5.4 41.7
10:15 1021 30.15 851 25.13 24.1 75.3 30 5.5 41.8
10:20 1021 30.15 851 25.13 24.1 75.3 29 5.4 41.7
10:25 1021 30.15 851 25.13 24 75.2 29 5.2 41.4
10:30 1021 30.15 851 25.13 24 75.2 29 4.9 40.8
10:35 1021 30.15 850 25.1 23.8 74.9 29 5.1 41.2
10:40 1021 30.15 850 25.1 24.6 76.2 29 5.6 42.2
10:45 1021 30.15 850 25.1 24.8 76.6 29 5.7 42.3
10:50 1021 30.15 850 25.1 24.8 76.6 30 6.1 43
10:55 1021 30.15 850 25.1 25.2 77.3 30 6.4 43.6
11:00 1021 30.15 850 25.1 25.4 77.8 29 6.1 43.1
11:05 1021 30.15 850 25.1 25.4 77.6 29 6.2 43.1
11:10 1021 30.15 850 25.1 25 77 29 5.9 42.7
11:15 1021 30.15 850 25.1 25 77 28 5.6 42.1
11:20 1021 30.15 850 25.1 26.1 79 28 6.3 43.3
11:25 1021 30.15 850 25.1 26.1 79 27 5.9 42.7
11:30 1021 30.15 850 25.1 26 78.7 28 6.2 43.2
11:35 1021 30.15 850 25.1 26.7 80.1 28 6.7 44.1
11:40 1021 30.15 850 25.1 27.1 80.7 25 5.9 42.6
11:45 1021 30.15 850 25.1 27 80.5 27 6.9 44.3
11:50 1020 30.12 850 25.1 27 80.7 26 6.3 43.3
11:55 1020 30.12 850 25.1 27 80.7 27 6.7 44
12:00 1020 30.12 850 25.1 27.1 80.8 27 7 44.6
12:05 1020 30.12 849 25.07 27.4 81.2 26 6.2 43.1
12:10 1020 30.12 849 25.07 27.7 81.9 24 5.5 41.9
12:15 1020 30.12 849 25.07 27.6 81.7 25 6 42.8
12:20 1020 30.12 849 25.07 27.7 81.9 25 6.5 43.6
12:25 1020 30.12 849 25.07 27.9 82.1 25 6.1 43
12:30 1020 30.12 849 25.07 28.5 83.2 25 6.6 43.9
12:35 1020 30.12 849 25.07 28.2 82.8 25 6.4 43.6
12:40 1020 30.12 849 25.07 28.4 83.1 23 5.6 42
12:45 1020 30.12 849 25.07 28.1 82.6 23 5.4 41.7
12:50 1020 30.12 849 25.07 27.9 82.2 24 5.9 42.6
12:55 1020 30.12 849 25.07 28.1 82.5 25 6.3 43.4
13:00 1019 30.09 849 25.07 28.2 82.8 24 6.4 43.4
13:05 1019 30.09 849 25.07 27.6 81.7 25 6.3 43.3
13:10 1019 30.09 849 25.07 27.9 82.2 26 6.8 44.3
13:15 1019 30.09 849 25.07 28.2 82.8 24 6.2 43.2
13:20 1019 30.09 849 25.07 28.4 83.2 25 6.6 43.8
13:25 1019 30.09 848 25.04 28.3 82.9 25 6.4 43.6
13:30 1019 30.09 848 25.04 28 82.3 25 6.2 43.1
13:35 1019 30.09 848 25.04 27.6 81.7 25 6.3 43.3
13:40 1019 30.09 848 25.04 27.1 80.8 27 6.6 43.8
13:45 1019 30.09 848 25.04 27.7 81.8 26 6.9 44.4
13:50 1019 30.09 848 25.04 27.7 81.8 26 6.6 43.9
13:55 1019 30.09 848 25.04 27.7 81.8 26 6.6 43.8
14:00 1019 30.09 848 25.04 27.5 81.6 26 6.4 43.4
14:05 1019 30.09 848 25.04 27.7 81.9 25 6.2 43.2
14:10 1019 30.09 848 25.04 28 82.5 25 6.5 43.7
14:15 1019 30.09 848 25.04 28 82.4 25 6.5 43.6
14:20 1019 30.09 848 25.04 27.8 82.1 26 6.6 43.9
14:25 1019 30.09 848 25.04 27.8 82.1 25 6.5 43.8
14:30 1019 30.09 848 25.04 26.8 80.2 29 7.5 45.5
14:35 1019 30.09 848 25.04 26.2 79.1 31 7.7 45.9
14:40 1019 30.09 848 25.04 25.7 78.3 34 9.1 48.3
14:45 1019 30.09 848 25.04 25.4 77.8 34 8.7 47.7
14:50 1019 30.09 848 25.04 25.2 77.4 35 8.9 48
14:55 1019 30.09 848 25.04 25.7 78.2 34 8.9 48.1
15:00 1019 30.09 848 25.04 25.7 78.2 33 8.3 46.9
15:05 1019 30.09 848 25.04 25.5 78 30 6.9 44.5
15:10 1019 30.09 848 25.04 25.1 77.2 30 6.5 43.7
15:15 1019 30.09 848 25.04 24.7 76.5 29 5.8 42.5
15:20 1019 30.09 848 25.04 24.9 76.8 29 5.7 42.2
15:25 1019 30.09 848 25.04 25.1 77.2 28 5.4 41.6
15:30 1019 30.09 848 25.04 25.4 77.8 27 5.4 41.8
15:35 1019 30.09 848 25.04 25.3 77.6 28 5.9 42.6
15:40 1018 30.06 848 25.04 25.2 77.4 28 5.8 42.4
15:45 1018 30.06 848 25.04 25.4 77.6 29 6.1 42.9
15:50 1018 30.06 848 25.04 25.3 77.6 29 6.2 43.1
15:55 1018 30.06 848 25.04 25.4 77.7 29 6.2 43.1
16:00 1018 30.06 847 25.01 25.5 77.8 29 6.2 43.1
16:05 1018 30.06 847 25.01 25.5 77.9 29 6.2 43.2
16:10 1018 30.06 847 25.01 25.6 78.1 29 6.6 43.8
16:15 1018 30.06 847 25.01 25.7 78.3 28 6.2 43.2
16:20 1018 30.06 847 25.01 25.7 78.3 28 5.9 42.7
16:25 1018 30.06 847 25.01 26 78.7 28 6.1 42.9
16:30 1018 30.06 847 25.01 26.3 79.3 26 5.7 42.2
16:35 1018 30.06 847 25.01 26.7 80 27 6.2 43.2
16:40 1018 30.06 847 25.01 26.9 80.4 28 7.2 44.9
16:45 1018 30.06 847 25.01 27.3 81.1 25 5.6 42.1
16:50 1018 30.06 847 25.01 27 80.6 27 6.9 44.5
16:55 1018 30.06 847 25.01 26.5 79.7 29 7.2 44.9
17:00 1018 30.06 847 25.01 26.1 79 30 7.6 45.8
17:05 1018 30.06 847 25.01 25.9 78.7 31 7.6 45.6
17:10 1018 30.06 847 25.01 25.8 78.4 32 8.1 46.6
17:15 1018 30.06 847 25.01 25.7 78.2 33 8.5 47.2
17:20 1018 30.06 847 25.01 25.6 78 33 8.4 47.1
17:25 1018 30.06 847 25.01 25.6 78.1 35 9.1 48.3
17:30 1018 30.06 847 25.01 25.6 78.1 32 7.9 46.3
17:35 1018 30.06 847 25.01 25.9 78.6 32 8.3 46.9
17:40 1018 30.06 847 25.01 26 78.7 34 8.9 48.1
17:45 1018 30.06 847 25.01 25.9 78.6 36 9.7 49.5
17:50 1018 30.06 847 25.01 26.1 79 33 9 48.3
17:55 1018 30.06 847 25.01 26.2 79.2 34 9.4 48.9
18:00 1018 30.06 847 25.01 26 78.8 34 9 48.2
18:05 1018 30.06 847 25.01 25.8 78.4 31 7.5 45.5
18:10 1018 30.06 847 25.01 25.5 77.9 30 6.8 44.3
18:15 1018 30.06 847 25.01 24.8 76.7 32 7.2 44.9
18:20 1018 30.06 847 25.01 23.9 75 33 6.9 44.4
18:25 1018 30.06 847 25.01 23.2 73.8 31 5.6 42.1
18:30 1018 30.06 847 25.01 22.9 73.3 32 5.5 41.9
18:35 1018 30.06 847 25.01 22.5 72.5 34 6 42.8
18:40 1018 30.06 847 25.01 22.4 72.3 31 4.5 40.2
18:45 1018 30.06 847 25.01 22.7 72.9 30 4.3 39.8
18:50 1018 30.06 847 25.01 22.7 72.9 30 4.5 40.1
18:55 1018 30.06 847 25.01 22.7 72.9 32 5.4 41.7
19:00 1018 30.06 847 25.01 22.6 72.7 31 5 41
19:05 1018 30.06 847 25.01 22.9 73.3 31 5.3 41.5
19:10 1018 30.06 847 25.01 22.9 73.1 30 4.7 40.4
19:15 1018 30.06 847 25.01 23.6 74.4 30 5 40.9
19:20 1018 30.06 847 25.01 23.8 74.8 29 4.8 40.7
19:25 1018 30.06 847 25.01 24 75.2 30 5.5 41.8
19:30 1018 30.06 848 25.04 24.2 75.5 27 4.5 40
19:35 1018 30.06 848 25.04 24.5 76.1 27 4.5 40.1
19:40 1018 30.06 848 25.04 24.6 76.4 27 4.8 40.6
19:45 1018 30.06 848 25.04 24.5 76.1 30 6.1 42.9
19:50 1018 30.06 847 25.01 24.6 76.3 25 3.7 38.6
19:55 1018 30.06 847 25.01 24.9 76.8 25 3.9 39
20:00 1018 30.06 847 25.01 24.7 76.4 27 4.5 40.1
20:05 1018 30.06 847 25.01 24.4 76 27 4.2 39.6
20:10 1018 30.06 847 25.01 24.5 76 28 4.8 40.7
20:15 1018 30.06 847 25.01 24.3 75.8 27 4.1 39.4
20:20 1018 30.06 847 25.01 24.4 75.9 27 4.4 39.9
20:25 1018 30.06 847 25.01 24.3 75.7 28 5 41.1
20:30 1018 30.06 847 25.01 24.2 75.5 27 4.1 39.4
20:35 1018 30.06 847 25.01 24.1 75.4 28 4.9 40.9
20:40 1018 30.06 847 25.01 23.9 75 27 3.9 39.1
20:45 1018 30.06 847 25.01 24 75.1 25 3 37.4
20:50 1018 30.06 847 25.01 24.4 75.8 25 3.2 37.7
20:55 1017 30.03 847 25.01 24.5 76.1 25 3.4 38.1
21:00 1017 30.03 847 25.01 24.2 75.6 29 5.5 41.9
21:05 1017 30.03 847 25.01 23.3 73.9 31 5.6 42.1
21:10 1017 30.03 847 25.01 23.1 73.6 31 5.1 41.3
21:15 1017 30.03 847 25.01 22.2 72 35 6.4 43.5
21:20 1017 30.03 847 25.01 21.2 70.1 42 8.1 46.5
21:25 1017 30.03 847 25.01 20.5 68.9 38 6 42.8
21:30 1017 30.03 847 25.01 21.1 69.9 39 6.7 44
21:35 1018 30.06 847 25.01 20.9 69.7 40 7 44.5
21:40 1017 30.03 847 25.01 20.4 68.7 42 7.3 45.2
21:45 1018 30.06 847 25.01 20.4 68.8 41 6.8 44.2
21:50 1018 30.06 847 25.01 20.3 68.5 44 7.7 45.9
21:55 1018 30.06 847 25.01 19.6 67.4 45 7.4 45.3
22:00 1018 30.06 847 25.01 19.5 67.2 43 6.9 44.4
22:05 1018 30.06 847 25.01 19.7 67.5 41 6.4 43.5
22:10 1018 30.06 847 25.01 20 68 45 7.9 46.2
22:15 1018 30.06 847 25.01 20.2 68.3 40 6.2 43.2
22:20 1018 30.06 847 25.01 19.7 67.5 44 7.1 44.8
22:25 1018 30.06 847 25.01 19.6 67.2 42 6.6 43.9
22:30 1018 30.06 847 25.01 19.4 66.8 44 6.9 44.4
22:35 1018 30.06 847 25.01 19.1 66.4 48 8 46.4
22:40 1018 30.06 847 25.01 18.7 65.6 51 8.4 47.1
22:45 1018 30.06 847 25.01 18 64.4 51 7.9 46.3
22:50 1018 30.06 847 25.01 17.8 64.1 51 7.8 46
22:55 1018 30.06 847 25.01 18.1 64.7 46 6.5 43.7
23:00 1018 30.06 847 25.01 18.4 65.2 48 7.3 45.1
23:05 1018 30.06 847 25.01 18.2 64.8 51 8 46.5
23:10 1018 30.06 847 25.01 18.1 64.5 49 7.2 45
23:15 1018 30.06 847 25.01 17.9 64.1 51 7.8 46.1
23:20 1018 30.06 847 25.01 17.5 63.4 48 6.5 43.8
23:25 1018 30.06 847 25.01 17.4 63.4 47 6.2 43.2
23:30 1018 30.06 847 25.01 17.2 62.9 48 6.2 43.2
23:35 1018 30.06 847 25.01 16.9 62.4 51 6.8 44.2
23:40 1017 30.03 847 25.01 17.2 62.9 47 5.9 42.6
23:45 1017 30.03 847 25.01 16.9 62.5 47 5.7 42.3
23:50 1017 30.03 847 25.01 17 62.7 46 5.5 41.8
23:55 1017 30.03 847 25.01 17.1 62.7 46 5.6 42.1
24:00 1017 30.03 847 25.01 17 62.6 46 5.4 41.7